Time;durP1;ratioP1;P1;durP2;ratioP2;P2;SDS_P1;SDS_P2;PMS_P1;PMS_P2;Temp;Humidity;BMP_temperature;BMP_pressure;BME280_temperature;BME280_humidity;BME280_pressure;Samples;Min_cycle;Max_cycle;Signal;HPM_P1;HPM_P2
2021/09/18 00:01:46;;;;;;;12.67;11.57;;;13.50;99.90;;;;;;4405829;32;20155;-67
2021/09/18 00:04:13;;;;;;;12.37;11.27;;;13.60;99.90;;;;;;4406103;32;20510;-67
2021/09/18 00:06:40;;;;;;;14.37;13.17;;;13.60;99.90;;;;;;4406985;32;20170;-69
2021/09/18 00:09:07;;;;;;;13.60;12.20;;;13.50;99.90;;;;;;4406363;32;20238;-68
2021/09/18 00:11:35;;;;;;;12.57;11.37;;;13.50;99.90;;;;;;4408130;32;20166;-68
2021/09/18 00:14:02;;;;;;;14.43;13.03;;;13.40;99.90;;;;;;4406291;32;20176;-68
2021/09/18 00:16:32;;;;;;;13.60;12.27;;;13.40;99.90;;;;;;4404576;32;20187;-67
2021/09/18 00:18:59;;;;;;;14.83;13.23;;;13.30;99.90;;;;;;4405659;32;20199;-68
2021/09/18 00:21:31;;;;;;;14.23;12.90;;;13.30;99.90;;;;;;4406222;32;20149;-69
2021/09/18 00:23:58;;;;;;;13.63;12.23;;;13.30;99.90;;;;;;4407338;32;20159;-68
2021/09/18 00:26:25;;;;;;;13.70;12.33;;;13.20;99.90;;;;;;4408554;32;20231;-69
2021/09/18 00:28:53;;;;;;;16.00;14.70;;;13.20;99.90;;;;;;4406570;32;20159;-68
2021/09/18 00:31:20;;;;;;;15.80;14.37;;;13.20;99.90;;;;;;4405800;32;20174;-68
2021/09/18 00:33:47;;;;;;;15.43;13.87;;;13.10;99.90;;;;;;4408008;32;20560;-67
2021/09/18 00:36:14;;;;;;;13.53;12.37;;;13.10;99.90;;;;;;4391599;32;20148;-68
2021/09/18 00:38:40;;;;;;;13.97;12.73;;;13.10;99.90;;;;;;4402661;32;20159;-70
2021/09/18 00:41:07;;;;;;;14.00;12.80;;;13.10;99.90;;;;;;4406197;32;20170;-67
2021/09/18 00:43:36;;;;;;;13.67;12.47;;;13.10;99.90;;;;;;4406267;32;20235;-67
2021/09/18 00:46:04;;;;;;;14.60;13.10;;;13.10;99.90;;;;;;4406107;32;20244;-66
2021/09/18 00:48:33;;;;;;;14.20;12.90;;;13.10;99.90;;;;;;4405291;32;20166;-66
2021/09/18 00:51:00;;;;;;;13.93;12.63;;;13.00;99.90;;;;;;4356284;32;1660205;-68
2021/09/18 00:53:27;;;;;;;15.33;13.93;;;13.00;99.90;;;;;;4407206;32;20184;-68
2021/09/18 00:55:55;;;;;;;15.07;13.57;;;13.00;99.90;;;;;;4405351;32;20186;-69
2021/09/18 00:58:21;;;;;;;17.07;15.30;;;12.90;99.90;;;;;;4406805;32;20186;-66
2021/09/18 01:00:48;;;;;;;15.07;13.60;;;12.90;99.90;;;;;;4405551;32;20205;-67
2021/09/18 01:03:18;;;;;;;16.27;14.83;;;12.90;99.90;;;;;;4405705;32;20193;-66
2021/09/18 01:05:45;;;;;;;17.30;15.80;;;12.90;99.90;;;;;;4403589;32;20627;-68
2021/09/18 01:08:12;;;;;;;17.67;16.17;;;12.90;99.90;;;;;;4405287;32;21075;-68
2021/09/18 01:10:39;;;;;;;17.27;15.40;;;12.90;99.90;;;;;;4406098;32;20610;-68
2021/09/18 01:13:09;;;;;;;17.87;16.27;;;12.90;99.90;;;;;;4405519;32;20175;-66
2021/09/18 01:15:38;;;;;;;17.17;15.40;;;12.80;99.90;;;;;;4407440;32;20167;-67
2021/09/18 01:18:09;;;;;;;16.90;15.20;;;12.80;99.90;;;;;;4405059;32;20227;-67
2021/09/18 01:20:40;;;;;;;17.83;16.23;;;12.80;99.90;;;;;;4390978;32;20166;-68
2021/09/18 01:23:08;;;;;;;18.60;16.80;;;12.80;99.90;;;;;;4401138;32;20219;-68
2021/09/18 01:25:39;;;;;;;16.83;14.93;;;12.80;99.90;;;;;;4404512;32;20279;-67
2021/09/18 01:28:07;;;;;;;18.27;16.73;;;12.80;99.90;;;;;;4405606;32;20477;-67
2021/09/18 01:30:36;;;;;;;16.30;14.80;;;12.80;99.90;;;;;;4405397;32;20436;-67
2021/09/18 01:33:06;;;;;;;16.73;15.10;;;12.70;99.90;;;;;;4405500;32;20171;-68
2021/09/18 01:35:33;;;;;;;15.17;13.77;;;12.70;99.90;;;;;;4405468;32;20183;-69
2021/09/18 01:38:00;;;;;;;17.07;15.47;;;12.70;99.90;;;;;;4405264;32;20213;-67
2021/09/18 01:40:29;;;;;;;18.03;16.43;;;12.60;99.90;;;;;;4405570;32;20205;-67
2021/09/18 01:42:58;;;;;;;16.20;14.60;;;12.60;99.90;;;;;;4404844;32;20213;-67
2021/09/18 01:45:25;;;;;;;16.77;15.17;;;12.60;99.90;;;;;;4404444;32;20160;-66
2021/09/18 01:47:54;;;;;;;17.10;15.37;;;12.60;99.90;;;;;;4400560;32;20186;-68
2021/09/18 01:50:28;;;;;;;16.50;14.80;;;12.50;99.90;;;;;;4405132;32;20163;-67
2021/09/18 01:52:57;;;;;;;14.83;13.33;;;12.50;99.90;;;;;;4391711;32;20212;-69
2021/09/18 01:55:24;;;;;;;17.70;14.37;;;12.50;99.90;;;;;;4401799;32;20194;-71
2021/09/18 01:57:52;;;;;;;13.77;12.47;;;12.50;99.90;;;;;;4405093;32;20207;-68
2021/09/18 02:00:21;;;;;;;15.53;14.10;;;12.50;99.90;;;;;;4403992;32;20262;-68
2021/09/18 02:02:48;;;;;;;16.03;14.63;;;12.40;99.90;;;;;;4392017;32;20190;-69
2021/09/18 02:05:20;;;;;;;16.13;14.50;;;12.40;99.90;;;;;;4405234;32;20194;-69
2021/09/18 02:07:47;;;;;;;16.37;14.80;;;12.40;99.90;;;;;;4405859;32;20215;-68
2021/09/18 02:10:16;;;;;;;15.70;14.20;;;12.40;99.90;;;;;;4403961;32;20544;-68
2021/09/18 02:12:44;;;;;;;17.80;16.00;;;12.40;99.90;;;;;;4405719;32;20216;-68
2021/09/18 02:15:12;;;;;;;17.80;15.83;;;12.40;99.90;;;;;;4404889;32;20180;-67
2021/09/18 02:17:41;;;;;;;19.67;16.70;;;12.30;99.90;;;;;;4405055;32;20195;-69
2021/09/18 02:20:11;;;;;;;17.37;15.63;;;12.40;99.90;;;;;;4402335;32;20193;-68
2021/09/18 02:22:38;;;;;;;19.07;17.40;;;12.30;99.90;;;;;;4404351;32;20175;-67
2021/09/18 02:25:06;;;;;;;18.97;17.07;;;12.30;99.90;;;;;;4404025;32;20167;-68
2021/09/18 02:27:33;;;;;;;16.90;15.20;;;12.30;99.90;;;;;;4405332;32;20175;-69
2021/09/18 02:29:59;;;;;;;16.70;15.20;;;12.30;99.90;;;;;;4403463;32;20151;-68
2021/09/18 02:32:29;;;;;;;16.07;14.53;;;12.20;99.90;;;;;;4399555;32;20156;-70
2021/09/18 02:34:57;;;;;;;16.23;14.57;;;12.30;99.90;;;;;;4404201;32;20223;-67
2021/09/18 02:37:24;;;;;;;17.00;15.47;;;12.20;99.90;;;;;;4405692;32;20227;-68
2021/09/18 02:39:51;;;;;;;16.13;14.60;;;12.20;99.90;;;;;;4402097;32;20219;-70
2021/09/18 02:42:18;;;;;;;15.10;13.70;;;12.20;99.90;;;;;;4403686;32;20174;-68
2021/09/18 02:44:44;;;;;;;15.33;13.97;;;12.20;99.90;;;;;;4405942;32;20172;-69
2021/09/18 02:47:11;;;;;;;15.77;14.43;;;12.20;99.90;;;;;;4405583;32;20156;-66
2021/09/18 02:49:38;;;;;;;15.97;14.30;;;12.20;99.90;;;;;;4407731;32;20175;-70
2021/09/18 02:52:06;;;;;;;16.27;14.90;;;12.10;99.90;;;;;;4406630;32;20190;-68
2021/09/18 02:54:33;;;;;;;15.80;14.50;;;12.10;99.90;;;;;;4407504;32;20186;-70
2021/09/18 02:57:00;;;;;;;16.13;14.67;;;12.10;99.90;;;;;;4407497;32;20207;-67
2021/09/18 02:59:27;;;;;;;14.53;13.23;;;12.10;99.90;;;;;;4408800;32;20207;-68
2021/09/18 03:01:54;;;;;;;14.57;13.17;;;12.10;99.90;;;;;;4406381;32;20159;-68
2021/09/18 03:04:20;;;;;;;13.43;12.13;;;12.00;99.90;;;;;;4408036;32;20473;-68
2021/09/18 03:06:47;;;;;;;13.77;12.37;;;12.00;99.90;;;;;;4406796;32;20156;-68
2021/09/18 03:09:16;;;;;;;13.33;12.10;;;12.00;99.90;;;;;;4404391;32;20164;-68
2021/09/18 03:11:43;;;;;;;12.33;11.33;;;12.00;99.90;;;;;;4392892;32;20164;-67
2021/09/18 03:14:10;;;;;;;11.63;10.60;;;12.00;99.90;;;;;;4401442;32;20225;-68
2021/09/18 03:16:37;;;;;;;13.27;12.17;;;12.00;99.90;;;;;;4398607;32;20661;-67
2021/09/18 03:19:04;;;;;;;11.13;10.13;;;11.90;99.90;;;;;;4407746;32;20160;-68
2021/09/18 03:21:31;;;;;;;12.83;11.73;;;11.90;99.90;;;;;;4404754;32;20215;-68
2021/09/18 03:23:58;;;;;;;11.97;10.87;;;11.90;99.90;;;;;;4406701;32;20600;-70
2021/09/18 03:26:26;;;;;;;12.83;11.73;;;11.80;99.90;;;;;;4394060;32;20212;-71
2021/09/18 03:28:53;;;;;;;13.70;12.33;;;11.80;99.90;;;;;;4399159;32;20558;-69
2021/09/18 03:31:21;;;;;;;12.47;11.33;;;11.80;99.90;;;;;;4409414;32;20250;-67
2021/09/18 03:33:47;;;;;;;12.27;11.20;;;11.80;99.90;;;;;;4406368;32;20219;-66
2021/09/18 03:36:14;;;;;;;11.33;10.27;;;11.80;99.90;;;;;;4407594;32;20510;-66
2021/09/18 03:38:41;;;;;;;12.70;11.60;;;11.80;99.90;;;;;;4406639;32;20155;-69
2021/09/18 03:41:08;;;;;;;12.97;11.87;;;11.80;99.90;;;;;;4398210;32;20187;-66
2021/09/18 03:43:36;;;;;;;11.53;10.53;;;11.80;99.90;;;;;;4407527;32;20160;-67
2021/09/18 03:46:03;;;;;;;12.83;11.73;;;11.80;99.90;;;;;;4406667;32;20591;-67
2021/09/18 03:48:33;;;;;;;12.47;11.37;;;11.80;99.90;;;;;;4406872;32;20226;-67
2021/09/18 03:51:00;;;;;;;12.17;11.07;;;11.80;99.90;;;;;;4407841;32;20244;-70
2021/09/18 03:53:27;;;;;;;12.40;11.43;;;11.80;99.90;;;;;;4392869;32;20160;-68
2021/09/18 03:55:53;;;;;;;10.77;9.93;;;11.80;99.90;;;;;;4400844;32;20163;-67
2021/09/18 03:58:21;;;;;;;11.50;10.60;;;11.80;99.90;;;;;;4407005;32;20574;-67
2021/09/18 04:00:50;;;;;;;13.10;12.00;;;11.80;99.90;;;;;;4397409;32;20168;-67
2021/09/18 04:03:17;;;;;;;12.23;11.00;;;11.80;99.90;;;;;;4409045;32;20237;-67
2021/09/18 04:05:44;;;;;;;10.77;9.87;;;11.80;99.90;;;;;;4405356;32;20168;-68
2021/09/18 04:08:11;;;;;;;14.23;13.13;;;11.80;99.90;;;;;;4406497;32;20195;-67
2021/09/18 04:10:38;;;;;;;11.13;10.13;;;11.80;99.90;;;;;;4408342;32;20495;-66
2021/09/18 04:13:06;;;;;;;12.07;10.97;;;11.80;99.90;;;;;;4406378;32;20198;-67
2021/09/18 04:15:33;;;;;;;12.13;11.07;;;11.80;99.90;;;;;;4405692;32;20155;-68
2021/09/18 04:18:01;;;;;;;12.00;11.00;;;11.80;99.90;;;;;;4406513;32;20233;-70
2021/09/18 04:20:28;;;;;;;12.57;11.43;;;11.80;99.90;;;;;;4407971;32;20163;-66
2021/09/18 04:22:55;;;;;;;14.03;12.43;;;11.80;99.90;;;;;;4406291;32;20576;-67
2021/09/18 04:25:22;;;;;;;12.97;12.07;;;11.80;99.90;;;;;;4408505;32;20159;-67
2021/09/18 04:27:49;;;;;;;10.93;10.03;;;11.80;99.90;;;;;;4400571;32;20190;-67
2021/09/18 04:30:16;;;;;;;11.83;10.93;;;11.80;99.90;;;;;;4394364;32;20219;-69
2021/09/18 04:32:43;;;;;;;11.90;10.37;;;11.80;99.90;;;;;;4405171;32;20182;-67
2021/09/18 04:35:14;;;;;;;12.40;11.40;;;11.80;99.90;;;;;;4397948;32;20174;-69
2021/09/18 04:37:41;;;;;;;10.70;9.77;;;11.80;99.90;;;;;;4393749;32;20225;-67
2021/09/18 04:40:08;;;;;;;11.93;10.90;;;11.70;99.90;;;;;;4404915;32;20156;-66
2021/09/18 04:42:35;;;;;;;12.47;11.20;;;11.70;99.90;;;;;;4406741;32;20160;-67
2021/09/18 04:45:03;;;;;;;11.23;10.23;;;11.70;99.90;;;;;;4405319;32;20682;-67
2021/09/18 04:47:30;;;;;;;12.50;11.40;;;11.70;99.90;;;;;;4400552;32;20159;-68
2021/09/18 04:49:56;;;;;;;10.67;9.67;;;11.70;99.90;;;;;;4406824;32;20603;-69
2021/09/18 04:52:25;;;;;;;11.47;10.57;;;11.70;99.90;;;;;;4406657;32;20172;-70
2021/09/18 04:54:53;;;;;;;10.57;9.67;;;11.70;99.90;;;;;;4395070;32;20164;-66
2021/09/18 04:57:20;;;;;;;11.10;10.17;;;11.70;99.90;;;;;;4405263;32;20156;-68
2021/09/18 04:59:47;;;;;;;12.07;10.73;;;11.70;99.90;;;;;;4405077;32;20578;-67
2021/09/18 05:02:17;;;;;;;11.73;10.73;;;11.70;99.90;;;;;;4405329;32;20207;-67
2021/09/18 05:04:47;;;;;;;10.97;10.07;;;11.70;99.90;;;;;;4406045;32;20552;-67
2021/09/18 05:07:14;;;;;;;12.03;10.70;;;11.70;99.90;;;;;;4371335;32;20611;-69
2021/09/18 05:09:42;;;;;;;13.63;12.43;;;11.70;99.90;;;;;;4405425;32;20249;-67
2021/09/18 05:12:09;;;;;;;11.77;10.87;;;11.60;99.90;;;;;;4405261;32;20175;-67
2021/09/18 05:14:36;;;;;;;11.23;10.33;;;11.60;99.90;;;;;;4407466;32;20207;-67
2021/09/18 05:17:04;;;;;;;12.07;11.07;;;11.60;99.90;;;;;;4404854;32;20211;-67
2021/09/18 05:19:31;;;;;;;11.27;10.27;;;11.60;99.90;;;;;;4406890;32;20210;-67
2021/09/18 05:21:58;;;;;;;12.07;11.00;;;11.60;99.90;;;;;;4405313;32;20184;-68
2021/09/18 05:24:27;;;;;;;13.23;11.93;;;11.50;99.90;;;;;;4405955;32;20148;-66
2021/09/18 05:26:55;;;;;;;12.43;11.43;;;11.60;99.90;;;;;;4405357;32;20248;-65
2021/09/18 05:29:22;;;;;;;11.57;10.60;;;11.60;99.90;;;;;;4400758;32;20171;-66
2021/09/18 05:31:49;;;;;;;12.57;11.33;;;11.60;99.90;;;;;;4406177;32;20239;-66
2021/09/18 05:34:16;;;;;;;12.67;11.60;;;11.60;99.90;;;;;;4405118;32;20171;-66
2021/09/18 05:36:43;;;;;;;13.30;12.00;;;11.70;99.90;;;;;;4405723;32;20190;-66
2021/09/18 05:39:10;;;;;;;11.00;10.10;;;11.70;99.90;;;;;;4366142;32;20159;-67
2021/09/18 05:41:37;;;;;;;11.37;10.43;;;11.80;99.90;;;;;;4400537;32;20160;-67
2021/09/18 05:44:05;;;;;;;12.00;11.10;;;11.80;99.90;;;;;;4406382;32;20200;-66
2021/09/18 05:46:34;;;;;;;11.50;10.60;;;11.90;99.90;;;;;;4400334;32;20177;-66
2021/09/18 05:49:01;;;;;;;12.50;11.27;;;11.90;99.90;;;;;;4400512;32;20230;-67
2021/09/18 05:51:29;;;;;;;13.30;12.17;;;12.00;99.90;;;;;;4399337;32;20600;-66
2021/09/18 05:53:56;;;;;;;13.87;12.53;;;12.00;99.90;;;;;;4399599;32;20170;-66
2021/09/18 05:56:23;;;;;;;11.53;10.63;;;12.10;99.90;;;;;;4400784;32;20140;-65
2021/09/18 05:58:50;;;;;;;14.30;13.10;;;12.20;99.90;;;;;;4407061;32;20579;-68
2021/09/18 06:01:18;;;;;;;17.07;15.43;;;12.30;99.90;;;;;;4402182;32;20663;-69
2021/09/18 06:03:45;;;;;;;23.30;17.77;;;12.40;99.90;;;;;;4403265;32;20223;-66
2021/09/18 06:06:12;;;;;;;27.80;18.83;;;12.50;99.90;;;;;;4397703;32;20155;-65
2021/09/18 06:08:39;;;;;;;32.13;21.60;;;12.60;99.90;;;;;;4403683;32;20162;-68
2021/09/18 06:11:06;;;;;;;27.17;20.93;;;12.60;99.90;;;;;;4402536;32;20183;-68
2021/09/18 06:13:33;;;;;;;25.23;20.17;;;12.70;99.90;;;;;;4403011;32;20163;-67
2021/09/18 06:16:01;;;;;;;25.60;21.20;;;12.70;99.90;;;;;;4404379;32;20451;-67
2021/09/18 06:18:29;;;;;;;26.27;19.07;;;12.80;99.90;;;;;;4371614;32;20155;-64
2021/09/18 06:20:59;;;;;;;22.63;19.43;;;12.90;99.90;;;;;;4404167;32;20167;-69
2021/09/18 06:23:29;;;;;;;18.13;16.33;;;13.00;99.90;;;;;;4403464;32;20166;-65
2021/09/18 06:25:57;;;;;;;19.23;17.23;;;13.10;99.90;;;;;;4402919;32;20218;-68
2021/09/18 06:28:24;;;;;;;19.67;17.57;;;13.20;99.90;;;;;;4377264;32;20151;-66
2021/09/18 06:30:51;;;;;;;19.50;17.53;;;13.30;99.90;;;;;;4390057;32;20231;-69
2021/09/18 06:33:19;;;;;;;19.13;17.17;;;13.40;99.90;;;;;;4401395;32;20476;-69
2021/09/18 06:35:48;;;;;;;20.33;18.30;;;13.50;99.90;;;;;;4398365;32;20225;-70
2021/09/18 06:38:17;;;;;;;19.50;17.60;;;13.70;99.90;;;;;;4400167;32;20162;-69
2021/09/18 06:40:44;;;;;;;19.23;17.43;;;13.90;99.90;;;;;;4397579;32;20207;-67
2021/09/18 06:43:11;;;;;;;18.00;16.40;;;14.00;99.90;;;;;;4398502;32;20718;-67
2021/09/18 06:45:38;;;;;;;19.30;17.47;;;14.10;99.90;;;;;;4396489;32;20329;-69
2021/09/18 06:48:05;;;;;;;18.73;16.97;;;14.30;99.90;;;;;;4400075;32;20154;-65
2021/09/18 06:50:32;;;;;;;18.70;16.77;;;14.50;99.90;;;;;;4366862;32;20201;-66
2021/09/18 06:53:00;;;;;;;16.73;15.03;;;14.50;99.90;;;;;;4401398;32;20231;-64
2021/09/18 06:55:27;;;;;;;16.87;15.27;;;14.70;99.90;;;;;;4402309;32;20228;-68
2021/09/18 06:57:56;;;;;;;16.00;14.50;;;14.90;99.90;;;;;;4401168;32;20161;-67
2021/09/18 07:00:24;;;;;;;15.60;14.20;;;15.20;99.90;;;;;;4377638;32;20153;-67
2021/09/18 07:02:51;;;;;;;17.47;15.97;;;15.40;99.90;;;;;;4387583;32;20168;-66
2021/09/18 07:05:19;;;;;;;15.57;14.07;;;15.60;99.90;;;;;;4396144;32;20517;-67
2021/09/18 07:07:46;;;;;;;15.73;14.23;;;15.70;99.90;;;;;;4398134;32;20222;-63
2021/09/18 07:10:15;;;;;;;17.10;15.50;;;15.80;99.90;;;;;;4398697;32;20747;-66
2021/09/18 07:12:43;;;;;;;16.00;14.43;;;15.70;99.90;;;;;;4397409;32;20229;-67
2021/09/18 07:15:11;;;;;;;19.13;17.17;;;15.60;99.90;;;;;;4393840;32;20227;-67
2021/09/18 07:17:41;;;;;;;16.40;14.73;;;15.70;99.90;;;;;;4396868;32;20656;-66
2021/09/18 07:20:09;;;;;;;17.40;15.73;;;15.70;99.90;;;;;;4400089;32;20159;-66
2021/09/18 07:22:36;;;;;;;16.13;14.73;;;15.80;99.90;;;;;;4398285;32;20211;-66
2021/09/18 07:25:04;;;;;;;16.27;14.77;;;15.90;99.90;;;;;;4396993;32;20166;-64
2021/09/18 07:27:33;;;;;;;17.20;15.60;;;16.00;99.90;;;;;;4396838;32;20201;-68
2021/09/18 07:29:59;;;;;;;15.80;14.37;;;16.20;99.90;;;;;;4397172;32;20152;-67
2021/09/18 07:32:26;;;;;;;16.97;15.43;;;16.30;99.90;;;;;;4396480;32;20203;-66
2021/09/18 07:34:53;;;;;;;15.13;13.73;;;16.40;99.90;;;;;;4401695;32;20222;-66
2021/09/18 07:37:21;;;;;;;15.43;14.03;;;16.60;99.90;;;;;;4405316;32;20610;-65
2021/09/18 07:39:48;;;;;;;17.27;15.63;;;16.60;99.90;;;;;;4401832;32;20504;-66
2021/09/18 07:42:15;;;;;;;16.90;15.33;;;16.60;99.90;;;;;;4404231;32;20214;-68
2021/09/18 07:44:43;;;;;;;13.93;12.53;;;16.60;99.90;;;;;;4406311;32;20230;-65
2021/09/18 07:47:10;;;;;;;14.77;13.27;;;16.60;99.90;;;;;;4404232;32;20147;-67
2021/09/18 07:49:37;;;;;;;16.93;15.33;;;16.60;99.90;;;;;;4403088;32;20529;-68
2021/09/18 07:52:05;;;;;;;16.17;14.53;;;16.70;99.90;;;;;;4400637;32;20183;-64
2021/09/18 07:54:32;;;;;;;18.50;16.57;;;16.90;99.90;;;;;;4401399;32;20183;-69
2021/09/18 07:56:59;;;;;;;16.53;14.93;;;17.10;99.90;;;;;;4400624;32;20479;-68
2021/09/18 07:59:26;;;;;;;18.63;16.90;;;17.20;99.90;;;;;;4405135;32;20160;-66
2021/09/18 08:01:54;;;;;;;17.07;14.63;;;17.40;99.90;;;;;;4402017;32;20164;-66
2021/09/18 08:04:21;;;;;;;16.63;15.03;;;17.60;99.90;;;;;;4405676;32;20145;-67
2021/09/18 08:06:48;;;;;;;18.87;17.07;;;17.90;99.90;;;;;;4407249;32;20163;-70
2021/09/18 08:09:14;;;;;;;17.70;16.13;;;18.20;99.90;;;;;;4403169;32;20179;-66
2021/09/18 08:11:41;;;;;;;18.90;17.30;;;18.50;99.90;;;;;;4394238;32;20148;-67
2021/09/18 08:14:08;;;;;;;22.37;19.70;;;18.60;99.90;;;;;;4406788;32;20182;-65
2021/09/18 08:16:35;;;;;;;18.27;16.60;;;18.80;99.90;;;;;;4402373;32;20144;-65
2021/09/18 08:19:04;;;;;;;19.23;17.60;;;18.80;99.90;;;;;;4407152;32;20179;-66
2021/09/18 08:21:30;;;;;;;22.43;20.50;;;19.00;99.90;;;;;;4405119;32;20148;-68
2021/09/18 08:23:59;;;;;;;22.63;20.73;;;19.50;99.90;;;;;;4401595;32;20148;-67
2021/09/18 08:26:30;;;;;;;21.90;20.20;;;20.10;99.90;;;;;;4395824;32;20154;-68
2021/09/18 08:29:01;;;;;;;24.37;22.50;;;20.80;99.90;;;;;;4394562;32;20732;-67
2021/09/18 08:31:28;;;;;;;25.07;23.27;;;21.50;99.90;;;;;;4401148;32;20232;-68
2021/09/18 08:34:00;;;;;;;29.63;27.80;;;22.60;99.90;;;;;;4401648;32;20613;-67
2021/09/18 08:36:28;;;;;;;33.73;31.60;;;24.30;99.90;;;;;;4402337;32;20167;-70
2021/09/18 08:38:55;;;;;;;31.13;29.03;;;24.80;99.90;;;;;;4405162;32;20144;-69
2021/09/18 08:41:22;;;;;;;31.73;29.83;;;24.30;99.90;;;;;;4404270;32;20202;-67
2021/09/18 08:43:49;;;;;;;31.23;29.13;;;23.60;99.90;;;;;;4403227;32;20191;-71
2021/09/18 08:46:21;;;;;;;26.57;24.87;;;22.90;99.90;;;;;;4403954;32;20156;-69
2021/09/18 08:48:48;;;;;;;32.83;30.93;;;22.40;99.90;;;;;;4405796;32;20191;-69
2021/09/18 08:51:17;;;;;;;35.23;32.47;;;22.00;99.90;;;;;;4407735;32;20173;-67
2021/09/18 08:53:45;;;;;;;32.27;30.30;;;22.00;99.90;;;;;;4404581;32;20601;-68
2021/09/18 08:56:16;;;;;;;32.53;29.70;;;21.90;99.90;;;;;;4406023;32;20143;-69
2021/09/18 08:58:43;;;;;;;27.47;25.77;;;21.90;99.90;;;;;;4405173;32;20493;-67
2021/09/18 09:01:18;;;;;;;30.87;29.07;;;22.00;99.90;;;;;;4397873;32;20152;-67
2021/09/18 09:03:55;;;;;;;33.77;31.87;;;22.50;99.90;;;;;;4399962;32;20216;-70
2021/09/18 09:06:26;;;;;;;32.87;30.87;;;23.00;99.90;;;;;;4406414;32;20170;-66
2021/09/18 09:09:00;;;;;;;31.27;29.70;;;23.50;99.90;;;;;;4406741;32;20163;-67
2021/09/18 09:11:30;;;;;;;28.33;26.87;;;23.60;99.90;;;;;;4406386;32;20185;-70
2021/09/18 09:14:00;;;;;;;32.83;31.13;;;23.50;99.90;;;;;;4407948;32;20485;-67
2021/09/18 09:16:27;;;;;;;30.73;29.23;;;23.20;99.90;;;;;;4406243;32;20166;-66
2021/09/18 09:18:55;;;;;;;28.97;27.47;;;22.90;99.90;;;;;;4406158;32;20159;-68
2021/09/18 09:21:24;;;;;;;27.13;25.70;;;22.70;99.90;;;;;;4407759;32;20215;-70
2021/09/18 09:24:19;;;;;;;29.20;27.80;;;22.60;99.90;;;;;;4406424;32;20135;-69
2021/09/18 09:27:05;;;;;;;28.73;27.43;;;22.70;99.90;;;;;;4358945;32;20164;-69
2021/09/18 09:29:43;;;;;;;25.93;24.73;;;22.70;99.90;;;;;;4360582;32;20156;-67
2021/09/18 09:32:29;;;;;;;31.57;30.07;;;22.80;99.90;;;;;;4360456;32;20236;-67
2021/09/18 09:34:58;;;;;;;27.77;26.53;;;23.00;99.90;;;;;;4358747;33;20148;-67
2021/09/18 09:37:28;;;;;;;30.13;28.83;;;23.10;99.90;;;;;;4359215;32;20183;-67
2021/09/18 09:40:02;;;;;;;28.33;27.03;;;23.10;99.90;;;;;;4360350;32;20653;-67
2021/09/18 09:42:33;;;;;;;30.17;28.80;;;23.10;99.90;;;;;;4358863;33;20134;-68
2021/09/18 09:45:10;;;;;;;26.47;25.33;;;23.10;99.90;;;;;;4358690;33;20148;-68
2021/09/18 09:47:37;;;;;;;27.93;26.67;;;22.90;99.90;;;;;;4358735;33;20167;-68
2021/09/18 09:50:05;;;;;;;28.30;27.03;;;22.60;99.90;;;;;;4358286;32;20176;-70
2021/09/18 09:52:33;;;;;;;29.13;27.83;;;22.50;99.90;;;;;;4358914;32;20231;-68
2021/09/18 09:55:10;;;;;;;29.50;28.20;;;22.40;99.90;;;;;;4357863;33;20271;-68
2021/09/18 09:57:38;;;;;;;26.77;25.60;;;22.50;99.90;;;;;;4358593;33;20171;-69
2021/09/18 10:00:08;;;;;;;22.80;21.90;;;22.40;99.90;;;;;;4359642;32;20608;-69
2021/09/18 10:02:39;;;;;;;24.07;22.97;;;22.40;99.90;;;;;;4368518;32;20194;-69
2021/09/18 10:05:07;;;;;;;26.73;25.60;;;22.40;99.90;;;;;;4406892;32;20148;-67
2021/09/18 10:07:36;;;;;;;22.63;21.63;;;22.50;99.90;;;;;;4407400;32;20159;-69
2021/09/18 10:10:06;;;;;;;26.03;24.93;;;22.70;99.00;;;;;;4406585;32;20186;-68
2021/09/18 10:12:37;;;;;;;20.40;19.50;;;22.90;99.30;;;;;;4405119;32;20140;-69
2021/09/18 10:15:09;;;;;;;24.87;23.87;;;23.00;98.90;;;;;;4405425;32;20135;-68
2021/09/18 10:17:40;;;;;;;19.63;18.83;;;23.10;98.80;;;;;;4407312;32;20156;-67
2021/09/18 10:20:09;;;;;;;22.23;21.07;;;23.20;98.00;;;;;;4407350;32;20201;-70
2021/09/18 10:25:47;;;;;;;21.97;20.97;;;23.80;97.60;;;;;;4359862;33;20549;-66
2021/09/18 10:28:16;;;;;;;20.92;20.00;;;24.10;97.50;;;;;;4358460;33;20216;-67
2021/09/18 10:30:47;;;;;;;25.73;24.63;;;23.70;96.70;;;;;;4343546;33;20212;-67
2021/09/18 10:33:35;;;;;;;21.40;20.40;;;23.80;97.70;;;;;;4345119;33;20476;-67
2021/09/18 10:36:06;;;;;;;20.77;19.87;;;24.10;96.90;;;;;;4343047;33;20175;-68
2021/09/18 10:38:35;;;;;;;19.37;18.48;;;24.30;96.40;;;;;;4344380;33;20172;-70
2021/09/18 10:41:07;;;;;;;20.58;19.77;;;24.30;95.50;;;;;;4344985;33;20171;-67
2021/09/18 10:43:37;;;;;;;20.63;19.73;;;24.30;95.20;;;;;;4344160;33;20153;-71
2021/09/18 10:46:08;;;;;;;22.30;21.30;;;24.30;95.70;;;;;;4349011;33;20192;-70
2021/09/18 10:48:51;;;;;;;20.42;19.55;;;24.10;95.90;;;;;;4359696;33;20145;-68
2021/09/18 10:51:36;;;;;;;21.33;20.33;;;23.80;96.30;;;;;;4363389;32;20200;-70
2021/09/18 10:54:14;;;;;;;22.10;21.13;;;23.50;96.80;;;;;;4361357;32;20219;-67
2021/09/18 10:57:06;;;;;;;21.12;20.25;;;23.40;97.40;;;;;;4380313;32;20147;-66
2021/09/18 10:59:48;;;;;;;19.15;18.33;;;23.10;97.10;;;;;;4397996;32;20163;-67
2021/09/18 11:02:40;;;;;;;20.35;19.55;;;22.90;96.80;;;;;;4397564;32;20149;-67
2021/09/18 11:05:08;;;;;;;22.03;20.87;;;22.70;97.00;;;;;;4403110;32;20168;-69
2021/09/18 11:07:46;;;;;;;24.20;23.17;;;22.50;97.10;;;;;;4409669;32;20197;-68
2021/09/18 11:10:15;;;;;;;22.40;21.47;;;22.40;96.70;;;;;;4407884;32;20192;-68
2021/09/18 11:13:19;;;;;;;20.47;19.57;;;22.30;96.70;;;;;;4407727;32;20143;-70
2021/09/18 11:15:48;;;;;;;27.17;26.07;;;22.30;97.00;;;;;;4407993;32;20131;-67
2021/09/18 11:18:18;;;;;;;28.63;27.43;;;22.30;98.30;;;;;;4407942;32;20193;-69
2021/09/18 11:20:45;;;;;;;28.03;26.70;;;22.40;98.40;;;;;;4407808;32;20139;-69
2021/09/18 11:23:12;;;;;;;27.37;26.07;;;22.50;98.20;;;;;;4407885;32;20156;-68
2021/09/18 11:25:44;;;;;;;28.92;27.62;;;22.50;98.10;;;;;;4407824;32;20135;-69
2021/09/18 11:28:14;;;;;;;27.77;26.63;;;22.60;98.00;;;;;;4408575;32;20178;-70
2021/09/18 11:30:42;;;;;;;28.02;26.80;;;22.70;98.40;;;;;;4407831;32;20544;-69
2021/09/18 11:33:10;;;;;;;22.40;21.40;;;22.70;98.10;;;;;;4407710;32;20148;-70
2021/09/18 11:35:38;;;;;;;24.27;23.07;;;22.70;97.00;;;;;;4407725;32;20156;-67
2021/09/18 11:38:07;;;;;;;26.20;24.70;;;22.80;97.40;;;;;;4404610;32;20226;-70
2021/09/18 11:40:36;;;;;;;23.67;22.57;;;22.80;97.20;;;;;;4404825;32;20644;-67
2021/09/18 11:43:04;;;;;;;21.62;20.62;;;22.80;96.70;;;;;;4399400;32;20524;-67
2021/09/18 11:45:38;;;;;;;20.10;19.10;;;22.90;95.80;;;;;;4399967;32;20172;-66
2021/09/18 11:48:10;;;;;;;23.55;22.55;;;22.80;96.00;;;;;;4401038;32;20167;-67
2021/09/18 11:50:38;;;;;;;23.70;22.50;;;22.80;96.70;;;;;;4399767;32;20587;-67
2021/09/18 11:53:07;;;;;;;24.13;23.13;;;22.90;96.60;;;;;;4406776;32;20167;-67
2021/09/18 11:55:36;;;;;;;23.77;22.62;;;22.90;96.90;;;;;;4398999;32;20172;-67
2021/09/18 11:58:07;;;;;;;23.97;22.93;;;23.00;96.70;;;;;;4392144;32;20187;-66
2021/09/18 12:00:42;;;;;;;23.52;22.50;;;23.00;96.50;;;;;;4405805;32;20163;-66
2021/09/18 12:03:10;;;;;;;20.63;19.73;;;23.10;96.30;;;;;;4400140;32;20230;-67
2021/09/18 12:05:37;;;;;;;18.80;18.00;;;23.10;96.30;;;;;;4391987;32;20144;-67
2021/09/18 12:08:05;;;;;;;23.10;22.00;;;23.10;95.70;;;;;;4395271;32;20218;-68
2021/09/18 12:10:32;;;;;;;20.67;19.67;;;23.10;96.40;;;;;;4401564;32;20182;-69
2021/09/18 12:13:01;;;;;;;21.55;20.40;;;23.10;95.50;;;;;;4401792;32;20503;-67
2021/09/18 12:15:33;;;;;;;24.73;23.45;;;23.10;95.60;;;;;;4398081;32;20207;-67
2021/09/18 12:18:03;;;;;;;22.85;21.62;;;23.10;96.30;;;;;;4399908;32;20163;-68
2021/09/18 12:20:32;;;;;;;21.85;20.77;;;23.00;95.70;;;;;;4399593;32;20148;-67
2021/09/18 12:22:59;;;;;;;24.47;23.37;;;23.00;95.90;;;;;;4399560;32;20144;-69
2021/09/18 12:25:28;;;;;;;25.85;24.63;;;23.00;96.20;;;;;;4398994;32;20186;-68
2021/09/18 12:27:57;;;;;;;25.80;24.58;;;23.00;96.30;;;;;;4401997;32;20151;-67
2021/09/18 12:30:35;;;;;;;28.13;26.63;;;23.10;97.10;;;;;;4397086;32;20200;-68
2021/09/18 12:33:05;;;;;;;25.85;24.60;;;23.00;96.30;;;;;;4392090;32;20152;-67
2021/09/18 12:35:43;;;;;;;27.30;25.60;;;23.00;96.60;;;;;;4398198;32;20163;-67
2021/09/18 12:38:11;;;;;;;24.67;23.33;;;23.00;96.60;;;;;;4398334;32;20162;-67
2021/09/18 12:40:44;;;;;;;28.10;26.55;;;23.00;96.70;;;;;;4397313;32;20171;-68